Time;durP1;ratioP1;P1;durP2;ratioP2;P2;SDS_P1;SDS_P2;PMS_P1;PMS_P2;Temp;Humidity;BMP_temperature;BMP_pressure;BME280_temperature;BME280_humidity;BME280_pressure;Samples;Min_cycle;Max_cycle;Signal;HPM_P1;HPM_P2
2023/04/05 00:01:18;;;;;;;;;;;;;;;8.46;47.27;101812.69;5074531;28;19928;-68
2023/04/05 00:03:46;;;;;;;;;;;;;;;8.40;47.64;101817.38;5077003;28;19921;-67
2023/04/05 00:06:15;;;;;;;;;;;;;;;8.13;47.88;101819.47;5056569;28;19931;-67
2023/04/05 00:08:49;;;;;;;;;;;;;;;8.09;48.17;101815.59;5076144;28;19920;-66
2023/04/05 00:11:16;;;;;;;;;;;;;;;8.25;47.75;101814.56;5071355;28;19924;-67
2023/04/05 00:13:43;;;;;;;;;;;;;;;8.11;48.05;101816.16;5067629;28;19924;-68
2023/04/05 00:16:10;;;;;;;;;;;;;;;8.07;48.41;101814.22;5075618;28;20530;-69
2023/04/05 00:18:38;;;;;;;;;;;;;;;7.79;49.19;101821.81;5075954;28;19924;-69
2023/04/05 00:21:05;;;;;;;;;;;;;;;7.86;49.27;101822.38;5075079;28;20298;-67
2023/04/05 00:23:37;;;;;;;;;;;;;;;7.60;50.17;101811.59;5059297;28;19924;-67
2023/04/05 00:26:04;;;;;;;;;;;;;;;7.61;50.72;101813.22;5074593;28;19924;-66
2023/04/05 00:28:31;;;;;;;;;;;;;;;7.68;50.25;101808.31;5077347;28;19927;-65
2023/04/05 00:30:58;;;;;;;;;;;;;;;7.64;50.55;101807.19;5074227;28;19928;-66
2023/04/05 00:33:25;;;;;;;;;;;;;;;7.32;51.58;101817.47;5076204;28;19928;-67
2023/04/05 00:35:52;;;;;;;;;;;;;;;7.28;52.09;101808.94;5075384;28;19924;-66
2023/04/05 00:38:20;;;;;;;;;;;;;;;7.22;52.71;101811.94;5059669;28;19928;-67
2023/04/05 00:40:47;;;;;;;;;;;;;;;7.36;52.97;101808.44;5075318;28;19931;-67
2023/04/05 00:43:14;;;;;;;;;;;;;;;7.43;53.07;101808.19;5076979;28;20379;-66
2023/04/05 00:45:41;;;;;;;;;;;;;;;7.48;52.86;101803.56;5075432;28;19924;-66
2023/04/05 00:48:08;;;;;;;;;;;;;;;7.51;53.14;101799.47;5075249;28;19924;-66
2023/04/05 00:50:35;;;;;;;;;;;;;;;7.65;52.90;101800.66;5074105;28;20386;-67
2023/04/05 00:53:03;;;;;;;;;;;;;;;7.46;53.55;101802.19;5075419;28;19940;-67
2023/04/05 00:55:32;;;;;;;;;;;;;;;7.24;53.98;101798.75;5041232;28;19928;-67
2023/04/05 00:58:00;;;;;;;;;;;;;;;7.30;54.08;101800.47;5075081;28;19924;-67
2023/04/05 01:00:27;;;;;;;;;;;;;;;7.44;53.99;101796.16;5057048;28;19946;-68
2023/04/05 01:02:54;;;;;;;;;;;;;;;7.46;54.08;101799.47;5076069;28;19955;-67
2023/04/05 01:05:37;;;;;;;;;;;;;;;7.41;53.98;101796.69;5074505;28;19931;-67
2023/04/05 01:08:12;;;;;;;;;;;;;;;7.52;53.70;101799.22;5058739;28;19924;-68
2023/04/05 01:10:41;;;;;;;;;;;;;;;7.36;54.55;101792.00;5057361;28;20007;-67
2023/04/05 01:13:09;;;;;;;;;;;;;;;7.08;54.93;101786.09;5076293;28;19943;-66
2023/04/05 01:15:36;;;;;;;;;;;;;;;6.93;55.97;101784.06;5039893;28;19925;-67
2023/04/05 01:18:04;;;;;;;;;;;;;;;6.91;56.08;101786.22;5074995;28;19933;-66
2023/04/05 01:20:33;;;;;;;;;;;;;;;6.75;56.62;101777.06;5075056;28;19931;-67
2023/04/05 01:23:13;;;;;;;;;;;;;;;6.73;56.69;101778.41;5074797;28;19924;-68
2023/04/05 01:25:48;;;;;;;;;;;;;;;6.95;56.21;101770.94;5052372;28;20276;-66
2023/04/05 01:28:34;;;;;;;;;;;;;;;6.97;56.30;101766.03;5074439;28;19920;-66
2023/04/05 01:31:01;;;;;;;;;;;;;;;6.97;55.95;101773.41;5072947;28;20233;-65
2023/04/05 01:33:33;;;;;;;;;;;;;;;6.88;56.48;101764.03;5073852;28;19931;-66
2023/04/05 01:36:05;;;;;;;;;;;;;;;6.84;56.60;101770.03;5052454;28;19935;-66
2023/04/05 01:38:34;;;;;;;;;;;;;;;7.04;56.39;101757.56;5062609;28;19931;-65
2023/04/05 01:41:01;;;;;;;;;;;;;;;7.21;55.63;101763.69;5056844;28;19920;-66
2023/04/05 01:43:28;;;;;;;;;;;;;;;7.07;56.23;101757.84;5091294;28;19924;-66
2023/04/05 01:45:56;;;;;;;;;;;;;;;7.14;56.00;101757.63;5074091;28;19929;-66
2023/04/05 01:48:23;;;;;;;;;;;;;;;6.84;57.10;101760.97;5074517;28;19927;-65
2023/04/05 01:50:50;;;;;;;;;;;;;;;6.52;57.81;101765.69;5072977;28;19956;-66
2023/04/05 01:53:17;;;;;;;;;;;;;;;6.51;57.90;101758.53;5073761;28;19924;-66
2023/04/05 01:55:45;;;;;;;;;;;;;;;6.77;57.45;101753.00;5072330;28;19928;-66
2023/04/05 01:58:12;;;;;;;;;;;;;;;6.67;57.64;101757.56;5072758;28;20565;-67
2023/04/05 02:00:39;;;;;;;;;;;;;;;6.54;57.75;101756.09;5055779;28;19971;-66
2023/04/05 02:03:06;;;;;;;;;;;;;;;6.55;57.97;101754.19;5072487;28;19932;-66
2023/04/05 02:05:34;;;;;;;;;;;;;;;6.71;57.69;101750.50;5072507;28;19935;-66
2023/04/05 02:08:01;;;;;;;;;;;;;;;6.73;57.79;101756.50;5074185;28;20292;-66
2023/04/05 02:10:29;;;;;;;;;;;;;;;7.04;56.72;101752.09;5074881;28;19928;-66
2023/04/05 02:12:56;;;;;;;;;;;;;;;6.98;57.03;101745.75;5070221;28;20682;-66
2023/04/05 02:15:24;;;;;;;;;;;;;;;7.12;57.04;101738.72;5071513;28;19928;-66
2023/04/05 02:17:52;;;;;;;;;;;;;;;7.48;55.89;101735.03;5073100;28;19920;-67
2023/04/05 02:20:20;;;;;;;;;;;;;;;6.88;57.16;101734.72;5074866;28;19932;-68
2023/04/05 02:22:47;;;;;;;;;;;;;;;6.95;57.14;101732.59;5074566;28;20477;-66
2023/04/05 02:25:15;;;;;;;;;;;;;;;6.83;57.60;101732.78;5074938;28;19932;-66
2023/04/05 02:27:42;;;;;;;;;;;;;;;7.03;57.33;101726.59;5071039;28;19927;-67
2023/04/05 02:30:09;;;;;;;;;;;;;;;6.98;57.60;101728.47;5074134;28;19924;-66
2023/04/05 02:32:36;;;;;;;;;;;;;;;6.76;58.08;101729.44;5069485;28;19927;-66
2023/04/05 02:35:07;;;;;;;;;;;;;;;6.63;58.15;101732.63;5053651;28;20300;-67
2023/04/05 02:37:34;;;;;;;;;;;;;;;6.68;58.46;101727.19;5072538;28;20003;-65
2023/04/05 02:40:04;;;;;;;;;;;;;;;6.84;58.01;101726.22;5075461;28;19924;-66
2023/04/05 02:42:31;;;;;;;;;;;;;;;6.77;57.69;101716.56;5072355;28;19931;-67
2023/04/05 02:44:58;;;;;;;;;;;;;;;6.94;57.94;101717.22;5056541;28;19924;-67
2023/04/05 02:47:25;;;;;;;;;;;;;;;6.85;57.56;101721.56;5052273;28;20333;-68
2023/04/05 02:49:56;;;;;;;;;;;;;;;6.77;57.94;101714.66;5053612;28;19925;-67
2023/04/05 02:52:26;;;;;;;;;;;;;;;6.91;57.92;101719.66;5072773;28;19920;-66
2023/04/05 02:54:53;;;;;;;;;;;;;;;6.92;57.80;101716.69;5073962;28;19920;-66
2023/04/05 02:57:25;;;;;;;;;;;;;;;6.82;57.49;101720.19;5073445;28;19924;-65
2023/04/05 03:00:09;;;;;;;;;;;;;;;6.68;57.82;101712.69;5056656;28;19920;-66
2023/04/05 03:02:37;;;;;;;;;;;;;;;6.41;59.23;101714.69;5073143;28;19928;-67
2023/04/05 03:05:04;;;;;;;;;;;;;;;6.41;59.15;101714.69;5073279;28;19934;-66
2023/04/05 03:07:32;;;;;;;;;;;;;;;6.35;59.70;101716.53;5072102;28;19943;-66
2023/04/05 03:10:03;;;;;;;;;;;;;;;6.54;58.61;101716.94;5057635;28;19927;-66
2023/04/05 03:12:31;;;;;;;;;;;;;;;6.68;58.82;101708.03;5070973;28;20388;-66
2023/04/05 03:14:59;;;;;;;;;;;;;;;6.49;58.66;101714.19;5053012;28;19928;-66
2023/04/05 03:17:34;;;;;;;;;;;;;;;6.37;58.86;101710.81;5055811;28;20030;-65
2023/04/05 03:20:05;;;;;;;;;;;;;;;6.16;60.05;101711.72;5074799;28;19920;-65
2023/04/05 03:22:32;;;;;;;;;;;;;;;6.37;59.38;101706.16;5071875;28;19924;-67
2023/04/05 03:25:01;;;;;;;;;;;;;;;6.51;59.54;101714.75;5073373;28;19924;-66
2023/04/05 03:27:30;;;;;;;;;;;;;;;6.39;59.21;101712.22;5069997;28;20402;-66
2023/04/05 03:30:07;;;;;;;;;;;;;;;6.26;59.77;101712.63;5073509;28;19955;-66
2023/04/05 03:32:40;;;;;;;;;;;;;;;6.22;59.61;101708.78;5072081;28;19920;-65
2023/04/05 03:35:20;;;;;;;;;;;;;;;6.13;60.00;101707.59;5072246;28;19924;-65
2023/04/05 03:37:47;;;;;;;;;;;;;;;5.99;60.99;101716.47;5072289;28;19924;-66
2023/04/05 03:40:15;;;;;;;;;;;;;;;6.08;60.42;101713.03;5058821;28;19936;-66
2023/04/05 03:42:43;;;;;;;;;;;;;;;6.22;59.90;101722.47;5077188;28;19928;-66
2023/04/05 03:45:10;;;;;;;;;;;;;;;6.27;59.36;101718.94;5076722;28;19928;-66
2023/04/05 03:47:37;;;;;;;;;;;;;;;6.14;59.63;101722.09;5076892;28;19932;-66
2023/04/05 03:50:06;;;;;;;;;;;;;;;6.11;59.82;101717.16;5077080;28;19931;-66
2023/04/05 03:52:33;;;;;;;;;;;;;;;6.20;59.64;101721.91;5075863;28;19920;-66
2023/04/05 03:55:01;;;;;;;;;;;;;;;6.37;59.66;101727.22;5077028;28;20351;-65
2023/04/05 03:57:31;;;;;;;;;;;;;;;6.41;59.01;101717.41;5075050;28;20307;-65
2023/04/05 04:00:16;;;;;;;;;;;;;;;6.56;58.66;101726.56;5076354;28;20355;-66
2023/04/05 04:02:44;;;;;;;;;;;;;;;6.31;59.28;101720.06;5075617;28;19920;-66
2023/04/05 04:05:14;;;;;;;;;;;;;;;6.49;59.18;101728.69;5059971;28;20375;-65
2023/04/05 04:07:43;;;;;;;;;;;;;;;6.37;59.37;101719.84;5057477;28;20054;-66
2023/04/05 04:10:11;;;;;;;;;;;;;;;6.43;59.07;101728.94;5077825;28;19922;-65
2023/04/05 04:12:38;;;;;;;;;;;;;;;6.35;58.73;101719.28;5074978;28;19946;-67
2023/04/05 04:15:06;;;;;;;;;;;;;;;6.06;59.66;101715.19;5056388;28;19924;-67
2023/04/05 04:17:43;;;;;;;;;;;;;;;6.32;59.58;101710.75;5074050;28;19921;-66
2023/04/05 04:20:26;;;;;;;;;;;;;;;6.33;59.47;101705.03;5075449;28;19931;-66
2023/04/05 04:23:18;;;;;;;;;;;;;;;5.92;59.95;101702.19;5071815;28;19921;-67
2023/04/05 04:26:01;;;;;;;;;;;;;;;5.99;60.50;101711.00;5059147;28;19928;-66
2023/04/05 04:28:57;;;;;;;;;;;;;;;6.13;59.86;101706.78;5076183;28;19931;-65
2023/04/05 04:31:38;;;;;;;;;;;;;;;6.04;59.68;101711.91;5074487;28;20287;-65
2023/04/05 04:34:12;;;;;;;;;;;;;;;6.10;60.02;101710.84;5077548;28;19928;-66
2023/04/05 04:37:00;;;;;;;;;;;;;;;6.14;59.83;101709.25;5073836;28;19920;-69
2023/04/05 04:39:38;;;;;;;;;;;;;;;6.14;59.85;101705.66;5077351;28;20040;-68
2023/04/05 04:42:21;;;;;;;;;;;;;;;5.94;60.52;101705.50;5074303;28;19920;-69
2023/04/05 04:45:07;;;;;;;;;;;;;;;6.13;60.34;101706.78;5075376;28;19924;-65
2023/04/05 04:47:43;;;;;;;;;;;;;;;5.93;60.40;101712.06;5072988;28;20339;-66
2023/04/05 04:50:34;;;;;;;;;;;;;;;5.67;61.13;101702.72;5055543;28;19924;-69
2023/04/05 04:53:01;;;;;;;;;;;;;;;5.75;61.13;101702.28;5075555;28;19924;-65
2023/04/05 04:55:28;;;;;;;;;;;;;;;5.69;60.43;101711.50;5074700;28;19924;-66
2023/04/05 04:57:55;;;;;;;;;;;;;;;5.50;60.81;101704.72;5057557;28;19921;-67
2023/04/05 05:00:22;;;;;;;;;;;;;;;5.53;60.87;101707.78;5074856;28;20306;-69
2023/04/05 05:02:54;;;;;;;;;;;;;;;5.51;61.00;101698.16;5074418;28;19927;-70
2023/04/05 05:05:21;;;;;;;;;;;;;;;5.63;60.94;101694.22;5058155;28;19929;-66
2023/04/05 05:07:49;;;;;;;;;;;;;;;5.48;61.15;101699.53;5075310;28;19920;-66
2023/04/05 05:10:17;;;;;;;;;;;;;;;5.49;60.71;101698.44;5075061;28;20563;-66
2023/04/05 05:12:44;;;;;;;;;;;;;;;5.27;61.33;101696.78;5074155;28;19927;-66
2023/04/05 05:15:14;;;;;;;;;;;;;;;5.46;61.31;101698.94;5041635;28;19921;-68
2023/04/05 05:17:41;;;;;;;;;;;;;;;5.58;60.56;101701.53;5075000;28;20686;-68
2023/04/05 05:20:09;;;;;;;;;;;;;;;5.29;61.39;101687.28;5075077;28;19920;-65
2023/04/05 05:22:39;;;;;;;;;;;;;;;5.21;61.96;101697.81;5073817;28;19920;-66
2023/04/05 05:25:07;;;;;;;;;;;;;;;5.46;61.65;101698.94;5076612;28;19928;-66
2023/04/05 05:27:34;;;;;;;;;;;;;;;5.51;60.74;101696.28;5072172;28;19928;-70
2023/04/05 05:30:02;;;;;;;;;;;;;;;5.41;61.11;101698.88;5091750;28;19931;-67
2023/04/05 05:32:29;;;;;;;;;;;;;;;5.55;60.75;101693.84;5073354;28;19921;-69
2023/04/05 05:34:56;;;;;;;;;;;;;;;5.35;61.56;101694.44;5076051;28;19924;-69
2023/04/05 05:37:32;;;;;;;;;;;;;;;5.55;61.52;101693.84;5073072;28;19927;-69
2023/04/05 05:39:59;;;;;;;;;;;;;;;5.59;61.51;101695.00;5076318;28;19927;-69
2023/04/05 05:42:27;;;;;;;;;;;;;;;5.65;61.73;101693.94;5074544;28;19925;-66
2023/04/05 05:44:54;;;;;;;;;;;;;;;5.70;61.27;101692.09;5075250;28;19920;-65
2023/04/05 05:47:21;;;;;;;;;;;;;;;5.89;60.98;101692.63;5056162;28;19920;-65
2023/04/05 05:49:48;;;;;;;;;;;;;;;6.13;60.30;101698.56;5075647;28;19924;-67
2023/04/05 05:52:15;;;;;;;;;;;;;;;6.31;59.46;101696.25;5071534;28;19920;-66
2023/04/05 05:54:43;;;;;;;;;;;;;;;6.08;60.03;101695.78;5062821;28;19927;-66
2023/04/05 05:57:10;;;;;;;;;;;;;;;6.09;60.41;101701.00;5070167;28;20313;-67
2023/04/05 05:59:37;;;;;;;;;;;;;;;5.80;61.05;101696.03;5075947;28;20346;-66
2023/04/05 06:02:04;;;;;;;;;;;;;;;5.93;60.49;101699.19;5055249;28;19920;-66
2023/04/05 06:04:33;;;;;;;;;;;;;;;5.82;60.92;101699.34;5075458;28;19924;-70
2023/04/05 06:07:00;;;;;;;;;;;;;;;5.75;61.40;101700.34;5073794;28;19927;-69
2023/04/05 06:09:27;;;;;;;;;;;;;;;5.82;61.11;101704.81;5074191;28;19924;-66
2023/04/05 06:11:55;;;;;;;;;;;;;;;6.00;60.79;101697.06;5072559;28;19920;-66
2023/04/05 06:14:23;;;;;;;;;;;;;;;5.90;60.81;101707.09;5061524;28;19933;-65
2023/04/05 06:16:50;;;;;;;;;;;;;;;5.70;61.91;101707.69;5066815;28;19920;-68
2023/04/05 06:19:17;;;;;;;;;;;;;;;5.97;61.12;101705.81;5074036;28;19924;-69
2023/04/05 06:21:46;;;;;;;;;;;;;;;5.73;61.42;101713.47;5055233;28;19921;-66
2023/04/05 06:24:13;;;;;;;;;;;;;;;5.59;60.98;101714.97;5090891;28;19947;-68
2023/04/05 06:26:40;;;;;;;;;;;;;;;5.56;61.67;101715.44;5067277;28;19921;-69
2023/04/05 06:29:07;;;;;;;;;;;;;;;5.51;61.76;101717.28;5075380;28;19924;-68
2023/04/05 06:31:34;;;;;;;;;;;;;;;5.49;61.32;101716.75;5067513;28;19920;-68
2023/04/05 06:34:02;;;;;;;;;;;;;;;5.50;61.49;101711.03;5064857;28;19925;-69
2023/04/05 06:36:30;;;;;;;;;;;;;;;5.66;61.26;101712.03;5069916;28;20287;-70
2023/04/05 06:38:58;;;;;;;;;;;;;;;5.58;60.61;101718.75;5056190;28;19925;-71
2023/04/05 06:41:26;;;;;;;;;;;;;;;5.68;60.89;101723.53;5062835;28;19939;-70
2023/04/05 06:43:54;;;;;;;;;;;;;;;5.67;60.98;101721.84;5061307;28;19925;-69
2023/04/05 06:46:22;;;;;;;;;;;;;;;5.69;60.49;101725.16;5062037;28;19920;-69
2023/04/05 06:48:50;;;;;;;;;;;;;;;5.75;60.89;101716.75;5060480;28;19924;-67
2023/04/05 06:51:17;;;;;;;;;;;;;;;5.99;61.95;101714.59;5061593;28;19921;-69
2023/04/05 06:53:44;;;;;;;;;;;;;;;6.23;62.61;101721.38;5057629;28;19990;-68
2023/04/05 06:56:11;;;;;;;;;;;;;;;6.80;63.65;101716.03;5062557;28;19921;-66
2023/04/05 06:58:38;;;;;;;;;;;;;;;6.60;59.06;101719.50;5058760;28;20306;-71
2023/04/05 07:01:06;;;;;;;;;;;;;;;6.21;58.68;101720.78;5062271;28;19928;-70
2023/04/05 07:03:33;;;;;;;;;;;;;;;6.26;58.98;101723.56;5061758;28;20291;-72
2023/04/05 07:06:01;;;;;;;;;;;;;;;6.45;58.85;101722.09;5058955;28;19928;-71
2023/04/05 07:08:30;;;;;;;;;;;;;;;6.57;58.19;101725.47;5069675;28;19936;-71
2023/04/05 07:10:57;;;;;;;;;;;;;;;6.40;58.45;101737.63;5070029;28;19924;-72
2023/04/05 07:13:24;;;;;;;;;;;;;;;6.58;58.20;101727.13;5064971;28;19929;-71
2023/04/05 07:15:52;;;;;;;;;;;;;;;6.51;57.90;101732.00;5064656;28;19924;-72
2023/04/05 07:18:19;;;;;;;;;;;;;;;6.45;58.74;101732.22;5052113;28;19924;-72
2023/04/05 07:20:47;;;;;;;;;;;;;;;6.73;58.14;101729.13;5063915;28;19920;-72
2023/04/05 07:23:15;;;;;;;;;;;;;;;6.68;57.66;101745.53;5066465;28;19927;-71
2023/04/05 07:25:42;;;;;;;;;;;;;;;6.90;57.63;101739.94;5073683;28;19924;-72
2023/04/05 07:28:09;;;;;;;;;;;;;;;6.89;57.05;101741.84;5068438;28;19932;-72
2023/04/05 07:30:37;;;;;;;;;;;;;;;6.97;57.23;101741.38;5071023;28;19924;-71
2023/04/05 07:33:04;;;;;;;;;;;;;;;7.21;56.13;101741.75;5065401;28;19944;-73
2023/04/05 07:35:32;;;;;;;;;;;;;;;7.18;55.64;101739.56;5035426;28;20654;-72
2023/04/05 07:37:59;;;;;;;;;;;;;;;7.00;56.46;101743.56;5073434;28;19947;-72
2023/04/05 07:40:26;;;;;;;;;;;;;;;6.97;56.37;101738.63;5074209;28;19980;-73
2023/04/05 07:42:53;;;;;;;;;;;;;;;6.89;56.50;101747.31;5067422;28;20307;-71
2023/04/05 07:45:20;;;;;;;;;;;;;;;7.03;56.35;101744.94;5070034;28;19927;-72
2023/04/05 07:47:48;;;;;;;;;;;;;;;7.03;56.20;101743.03;5066415;28;19921;-71
2023/04/05 07:50:15;;;;;;;;;;;;;;;6.91;56.13;101731.47;5066331;28;20277;-71
2023/04/05 07:52:42;;;;;;;;;;;;;;;6.70;56.32;101732.41;5068572;28;19921;-70
2023/04/05 07:55:09;;;;;;;;;;;;;;;7.07;55.60;101730.47;5072917;28;19925;-71
2023/04/05 07:57:36;;;;;;;;;;;;;;;6.85;55.15;101732.53;5077705;28;19931;-71
2023/04/05 08:00:09;;;;;;;;;;;;;;;6.98;54.68;101723.00;5046685;28;19932;-72
2023/04/05 08:02:38;;;;;;;;;;;;;;;6.92;54.61;101722.16;5067591;28;20459;-73
2023/04/05 08:05:06;;;;;;;;;;;;;;;6.98;53.45;101712.88;5068168;28;19924;-73
2023/04/05 08:07:33;;;;;;;;;;;;;;;7.02;53.28;101718.66;5066766;28;19924;-73
2023/04/05 08:10:00;;;;;;;;;;;;;;;7.18;52.38;101723.13;5069305;28;19920;-71
2023/04/05 08:12:28;;;;;;;;;;;;;;;7.52;51.60;101721.63;5066943;28;20997;-71
2023/04/05 08:14:56;;;;;;;;;;;;;;;7.47;51.55;101718.84;5062690;28;20308;-73
2023/04/05 08:17:25;;;;;;;;;;;;;;;7.78;50.80;101720.59;5067764;28;19920;-72
2023/04/05 08:19:53;;;;;;;;;;;;;;;7.72;50.68;101717.00;5063763;28;19932;-72
2023/04/05 08:22:20;;;;;;;;;;;;;;;8.01;50.20;101722.84;5066247;28;19936;-72
2023/04/05 08:25:05;;;;;;;;;;;;;;;8.08;49.02;101723.41;5067656;28;20390;-72
2023/04/05 08:27:32;;;;;;;;;;;;;;;8.04;49.18;101727.78;5071069;28;19928;-73
2023/04/05 08:29:59;;;;;;;;;;;;;;;7.99;49.72;101728.63;5069719;28;19921;-73
2023/04/05 08:32:27;;;;;;;;;;;;;;;8.01;49.63;101733.81;5054356;28;19935;-72
2023/04/05 08:35:11;;;;;;;;;;;;;;;8.40;49.04;101726.78;5062496;28;19940;-72
2023/04/05 08:37:56;;;;;;;;;;;;;;;8.61;47.78;101736.63;5066229;28;19928;-73
2023/04/05 08:40:41;;;;;;;;;;;;;;;8.18;48.18;101742.63;5067303;28;19920;-75
2023/04/05 08:43:14;;;;;;;;;;;;;;;8.37;48.13;101738.28;5063757;28;19931;-73
2023/04/05 08:45:50;;;;;;;;;;;;;;;8.47;48.33;101735.53;5056890;28;19927;-72
2023/04/05 08:48:18;;;;;;;;;;;;;;;8.36;47.56;101733.91;5067459;28;20368;-72
2023/04/05 08:50:50;;;;;;;;;;;;;;;8.45;47.00;101732.25;5065935;28;20378;-73
2023/04/05 08:53:17;;;;;;;;;;;;;;;8.09;46.81;101729.72;5069304;28;19927;-73
2023/04/05 08:55:47;;;;;;;;;;;;;;;8.34;47.04;101730.59;5062444;28;19928;-72
2023/04/05 08:58:14;;;;;;;;;;;;;;;8.63;47.20;101737.19;5063318;28;19924;-75
2023/04/05 09:00:41;;;;;;;;;;;;;;;8.48;46.29;101728.13;5057994;28;19921;-72
2023/04/05 09:03:15;;;;;;;;;;;;;;;8.34;46.13;101727.03;5053352;28;19924;-72
2023/04/05 09:05:44;;;;;;;;;;;;;;;8.48;45.23;101737.19;5061671;28;19931;-73
2023/04/05 09:08:11;;;;;;;;;;;;;;;8.49;44.55;101724.31;5073062;28;19920;-73
2023/04/05 09:10:39;;;;;;;;;;;;;;;8.68;43.92;101726.19;5072196;28;19931;-74
2023/04/05 09:13:07;;;;;;;;;;;;;;;8.48;43.59;101736.38;5064210;28;19924;-75
2023/04/05 09:15:37;;;;;;;;;;;;;;;8.26;43.97;101733.91;5068748;28;19924;-73
2023/04/05 09:18:04;;;;;;;;;;;;;;;8.49;43.51;101738.81;5069846;28;19924;-74
2023/04/05 09:20:41;;;;;;;;;;;;;;;8.41;43.40;101731.16;5066375;28;19927;-74
2023/04/05 09:23:09;;;;;;;;;;;;;;;8.38;43.75;101734.47;5053551;28;19924;-72
2023/04/05 09:25:38;;;;;;;;;;;;;;;8.39;43.42;101724.28;5068293;28;19928;-67
2023/04/05 09:28:05;;;;;;;;;;;;;;;8.54;42.75;101732.53;5048713;28;19931;-74
2023/04/05 09:30:33;;;;;;;;;;;;;;;8.33;42.62;101722.66;5070021;28;19929;-65
2023/04/05 09:33:02;;;;;;;;;;;;;;;8.78;42.39;101717.97;5065778;28;19943;-63
2023/04/05 09:35:30;;;;;;;;;;;;;;;8.49;42.41;101727.03;5049725;28;19925;-65
2023/04/05 09:37:58;;;;;;;;;;;;;;;9.03;41.60;101709.63;5061719;28;19931;-73
2023/04/05 09:40:44;;;;;;;;;;;;;;;9.34;41.38;101715.03;5057650;28;19932;-73
2023/04/05 09:43:35;;;;;;;;;;;;;;;9.39;40.12;101715.84;5061126;28;20384;-64
2023/04/05 09:46:03;;;;;;;;;;;;;;;8.89;40.09;101711.31;5070246;28;19928;-65
2023/04/05 09:48:44;;;;;;;;;;;;;;;8.81;40.29;101705.56;5060488;28;19924;-65
2023/04/05 09:51:15;;;;;;;;;;;;;;;9.07;40.39;101708.00;5053360;28;19920;-72
2023/04/05 09:54:02;;;;;;;;;;;;;;;9.62;39.71;101697.88;5063354;28;20716;-68
2023/04/05 09:56:30;;;;;;;;;;;;;;;9.68;39.08;101703.06;5061993;28;19924;-63
2023/04/05 09:59:00;;;;;;;;;;;;;;;9.72;39.03;101695.06;5061388;28;19925;-63
2023/04/05 10:01:29;;;;;;;;;;;;;;;9.59;38.40;101696.50;5044866;28;19924;-76
2023/04/05 10:03:58;;;;;;;;;;;;;;;9.66;39.16;101701.72;5064827;28;19921;-63
2023/04/05 10:06:36;;;;;;;;;;;;;;;9.84;38.94;101699.13;5049201;28;19924;-63
2023/04/05 10:09:04;;;;;;;;;;;;;;;10.45;38.75;101695.94;5067277;28;19943;-64
2023/04/05 10:11:35;;;;;;;;;;;;;;;10.05;37.91;101699.78;5067699;28;19921;-70
2023/04/05 10:14:07;;;;;;;;;;;;;;;10.08;37.40;101693.72;5064937;28;20402;-68
2023/04/05 10:16:40;;;;;;;;;;;;;;;9.96;37.22;101696.00;5063777;28;19927;-70
2023/04/05 10:19:08;;;;;;;;;;;;;;;10.00;37.23;101695.16;5054388;28;19920;-70
2023/04/05 10:21:39;;;;;;;;;;;;;;;9.82;36.69;101695.81;5069096;28;19928;-71
2023/04/05 10:24:27;;;;;;;;;;;;;;;9.62;37.10;101692.38;5069348;28;19943;-71
2023/04/05 10:27:05;;;;;;;;;;;;;;;9.53;36.98;101683.88;5071873;28;20314;-70
2023/04/05 10:29:43;;;;;;;;;;;;;;;9.52;37.84;101681.44;5073828;28;19935;-69
2023/04/05 10:32:12;;;;;;;;;;;;;;;9.75;38.81;101681.56;5061266;28;19931;-68
2023/04/05 10:34:40;;;;;;;;;;;;;;;10.10;38.59;101675.84;5068363;28;19925;-67
2023/04/05 10:37:07;;;;;;;;;;;;;;;10.22;37.13;101664.47;5072114;28;19940;-68
2023/04/05 10:39:39;;;;;;;;;;;;;;;10.01;37.45;101666.53;5045269;28;20380;-67
2023/04/05 10:42:10;;;;;;;;;;;;;;;10.48;37.43;101657.59;5046059;28;19927;-70
2023/04/05 10:44:37;;;;;;;;;;;;;;;10.73;36.62;101660.13;5054834;28;19920;-69
2023/04/05 10:47:04;;;;;;;;;;;;;;;11.05;37.19;101656.75;5065438;28;19920;-69
2023/04/05 10:49:35;;;;;;;;;;;;;;;11.06;36.94;101648.19;5072124;28;19928;-68
2023/04/05 10:52:02;;;;;;;;;;;;;;;10.93;36.98;101640.59;5070420;28;19931;-71
2023/04/05 10:54:31;;;;;;;;;;;;;;;11.06;35.81;101650.94;5073409;28;19924;-67
2023/04/05 10:57:00;;;;;;;;;;;;;;;11.00;35.47;101646.56;5068000;28;20398;-68
2023/04/05 10:59:27;;;;;;;;;;;;;;;11.08;34.03;101650.63;5070039;28;19924;-68
2023/04/05 11:01:54;;;;;;;;;;;;;;;10.90;33.52;101649.47;5065641;28;19920;-69
2023/04/05 11:04:22;;;;;;;;;;;;;;;10.98;32.65;101645.25;5056138;28;19928;-65
2023/04/05 11:07:09;;;;;;;;;;;;;;;11.43;34.05;101643.84;5073120;28;19931;-67
2023/04/05 11:09:37;;;;;;;;;;;;;;;11.79;31.65;101631.19;5060498;28;19928;-65
2023/04/05 11:12:04;;;;;;;;;;;;;;;11.73;32.29;101632.41;5070531;28;19920;-65
2023/04/05 11:14:35;;;;;;;;;;;;;;;11.74;33.56;101631.28;5072798;28;20339;-65
2023/04/05 11:17:02;;;;;;;;;;;;;;;11.18;33.50;101636.72;5064344;28;19921;-66
2023/04/05 11:19:42;;;;;;;;;;;;;;;11.12;33.74;101632.41;5051428;28;19924;-65
2023/04/05 11:22:09;;;;;;;;;;;;;;;11.72;34.28;101633.50;5069336;28;19920;-65
2023/04/05 11:24:51;;;;;;;;;;;;;;;12.19;32.46;101633.31;5063963;28;19920;-65
2023/04/05 11:27:29;;;;;;;;;;;;;;;11.65;30.50;101627.53;5065924;28;19928;-63
2023/04/05 11:29:56;;;;;;;;;;;;;;;11.60;31.19;101628.41;5070661;28;19935;-64
2023/04/05 11:32:36;;;;;;;;;;;;;;;11.39;31.55;101621.53;5068488;28;19921;-63
2023/04/05 11:35:07;;;;;;;;;;;;;;;11.49;33.09;101618.63;5060034;28;19924;-63
2023/04/05 11:37:54;;;;;;;;;;;;;;;11.71;31.45;101616.16;5064079;28;19925;-64
2023/04/05 11:40:31;;;;;;;;;;;;;;;11.85;32.23;101616.22;5063160;28;19928;-63
2023/04/05 11:43:00;;;;;;;;;;;;;;;11.64;30.34;101621.22;5061779;28;19932;-63
2023/04/05 11:45:28;;;;;;;;;;;;;;;11.52;30.71;101622.75;5065459;28;19931;-64
2023/04/05 11:48:08;;;;;;;;;;;;;;;11.33;30.01;101618.03;5072082;28;20288;-63
2023/04/05 11:50:35;;;;;;;;;;;;;;;11.53;31.10;101607.81;5068159;28;19928;-64
2023/04/05 11:53:11;;;;;;;;;;;;;;;11.89;30.96;101607.03;5067040;28;19924;-65
2023/04/05 11:55:40;;;;;;;;;;;;;;;12.26;30.89;101595.06;5061169;28;19924;-64
2023/04/05 11:58:11;;;;;;;;;;;;;;;12.36;29.58;101592.94;5054993;28;19928;-65
2023/04/05 12:00:39;;;;;;;;;;;;;;;12.62;29.88;101586.97;5056996;28;19929;-63
2023/04/05 12:03:10;;;;;;;;;;;;;;;12.36;30.08;101584.66;5062311;28;19931;-65
2023/04/05 12:06:03;;;;;;;;;;;;;;;12.13;30.28;101593.09;5065964;28;19931;-64
2023/04/05 12:08:41;;;;;;;;;;;;;;;12.78;29.42;101580.81;5069939;28;19920;-64
2023/04/05 12:11:09;;;;;;;;;;;;;;;12.31;29.01;101582.00;5071033;28;19927;-63
2023/04/05 12:13:36;;;;;;;;;;;;;;;12.27;28.83;101580.16;5069357;28;19929;-64
2023/04/05 12:16:04;;;;;;;;;;;;;;;12.68;28.62;101574.66;5067172;28;19958;-64
2023/04/05 12:18:33;;;;;;;;;;;;;;;12.63;27.41;101570.06;5076211;28;19924;-64
2023/04/05 12:21:00;;;;;;;;;;;;;;;13.00;28.26;101566.28;5074974;28;19936;-63
2023/04/05 12:23:31;;;;;;;;;;;;;;;12.91;28.36;101562.59;5072672;28;20422;-63
2023/04/05 12:25:58;;;;;;;;;;;;;;;12.66;28.87;101557.59;5063632;28;19924;-64
2023/04/05 12:28:45;;;;;;;;;;;;;;;13.10;29.33;101555.00;5059326;28;19939;-64
2023/04/05 12:31:13;;;;;;;;;;;;;;;13.39;28.94;101558.22;5064617;28;19927;-64
2023/04/05 12:33:42;;;;;;;;;;;;;;;13.13;28.07;101557.97;5067646;28;19924;-64
2023/04/05 12:36:10;;;;;;;;;;;;;;;13.52;28.08;101549.06;5072987;28;19920;-64
2023/04/05 12:38:37;;;;;;;;;;;;;;;13.52;28.06;101555.44;5066032;28;19924;-66
2023/04/05 12:41:05;;;;;;;;;;;;;;;12.70;27.59;101548.38;5065641;28;20233;-64
2023/04/05 12:43:41;;;;;;;;;;;;;;;12.76;27.58;101541.59;5068680;28;19939;-65
2023/04/05 12:46:09;;;;;;;;;;;;;;;13.00;26.93;101533.91;5062414;28;19928;-63
2023/04/05 12:48:37;;;;;;;;;;;;;;;13.14;27.26;101537.50;5065324;28;19941;-66
2023/04/05 12:51:05;;;;;;;;;;;;;;;13.30;27.51;101536.00;5065879;28;19929;-65
2023/04/05 12:53:33;;;;;;;;;;;;;;;13.53;27.75;101532.16;5064425;28;19928;-65
2023/04/05 12:56:00;;;;;;;;;;;;;;;13.81;27.18;101526.50;5066563;28;19928;-65
2023/04/05 12:58:32;;;;;;;;;;;;;;;13.67;26.61;101525.75;5063570;28;19931;-64
2023/04/05 13:01:00;;;;;;;;;;;;;;;13.07;27.22;101522.44;5067546;28;19932;-65